createdAt,value
2023-08-22T00:00:35.286Z,1.30
2023-08-22T00:03:03.369Z,1.30
2023-08-22T00:05:33.013Z,1.10
2023-08-22T00:08:05.356Z,1.42
2023-08-22T00:10:35.166Z,1.60
2023-08-22T00:13:04.287Z,1.48
2023-08-22T00:15:32.320Z,1.30
2023-08-22T00:18:00.213Z,1.13
2023-08-22T00:20:28.521Z,1.50
2023-08-22T00:22:56.290Z,1.52
2023-08-22T00:25:24.012Z,1.42
2023-08-22T00:27:51.777Z,1.45
2023-08-22T00:30:21.955Z,1.40
2023-08-22T00:32:49.750Z,1.38
2023-08-22T00:35:17.561Z,1.30
2023-08-22T00:37:45.457Z,1.33
2023-08-22T00:40:13.939Z,1.77
2023-08-22T00:42:41.770Z,1.23
2023-08-22T00:45:11.724Z,1.30
2023-08-22T00:47:39.885Z,1.45
2023-08-22T00:50:08.399Z,1.23
2023-08-22T00:52:36.234Z,1.42
2023-08-22T00:55:04.310Z,1.35
2023-08-22T00:57:32.078Z,1.20
2023-08-22T01:00:03.214Z,1.42
2023-08-22T01:02:31.114Z,1.60
2023-08-22T01:04:59.260Z,1.40
2023-08-22T01:07:39.617Z,1.50
2023-08-22T01:10:25.854Z,1.20
2023-08-22T01:13:10.803Z,2.05
2023-08-22T01:15:41.966Z,1.90
2023-08-22T01:18:12.435Z,1.33
2023-08-22T01:20:40.180Z,1.48
2023-08-22T01:23:08.185Z,1.52
2023-08-22T01:25:37.588Z,1.70
2023-08-22T01:28:16.049Z,1.30
2023-08-22T01:31:05.560Z,1.38
2023-08-22T01:33:59.635Z,1.75
2023-08-22T01:36:27.850Z,1.75
2023-08-22T01:38:57.705Z,1.65
2023-08-22T01:41:25.828Z,1.70
2023-08-22T01:43:53.562Z,1.63
2023-08-22T01:46:21.390Z,1.80
2023-08-22T01:48:49.302Z,2.03
2023-08-22T01:51:17.117Z,1.63
2023-08-22T01:53:44.971Z,1.48
2023-08-22T01:56:12.685Z,1.33
2023-08-22T01:58:40.668Z,2.15
2023-08-22T02:01:13.122Z,1.67
2023-08-22T02:03:42.970Z,1.42
2023-08-22T02:06:10.924Z,1.83
2023-08-22T02:08:40.513Z,2.13
2023-08-22T02:11:08.841Z,1.95
2023-08-22T02:13:36.591Z,1.60
2023-08-22T02:16:04.679Z,1.50
2023-08-22T02:18:32.457Z,2.15
2023-08-22T02:21:04.159Z,2.00
2023-08-22T02:23:33.457Z,1.50
2023-08-22T02:26:01.265Z,2.17
2023-08-22T02:28:29.055Z,1.70
2023-08-22T02:30:57.598Z,1.88
2023-08-22T02:33:25.452Z,2.08
2023-08-22T02:35:53.284Z,2.10
2023-08-22T02:38:21.064Z,1.98
2023-08-22T02:40:50.863Z,1.85
2023-08-22T02:43:18.597Z,2.20
2023-08-22T02:45:47.311Z,2.03
2023-08-22T02:48:15.389Z,2.05
2023-08-22T02:50:43.448Z,2.05
2023-08-22T02:53:15.582Z,1.83
2023-08-22T02:55:47.319Z,2.03
2023-08-22T02:58:15.177Z,1.95
2023-08-22T03:00:47.102Z,2.05
2023-08-22T03:03:15.548Z,2.10
2023-08-22T03:05:44.044Z,2.20
2023-08-22T03:08:11.810Z,1.98
2023-08-22T03:10:39.523Z,1.95
2023-08-22T03:13:07.364Z,1.70
2023-08-22T03:15:35.137Z,1.98
2023-08-22T03:18:03.534Z,2.15
2023-08-22T03:20:31.926Z,1.70
2023-08-22T03:23:01.956Z,2.05
2023-08-22T03:25:29.804Z,1.95
2023-08-22T03:27:57.598Z,2.40
2023-08-22T03:30:25.357Z,2.42
2023-08-22T03:32:53.113Z,2.28
2023-08-22T03:35:21.055Z,2.20
2023-08-22T03:37:48.848Z,2.20
2023-08-22T03:40:16.793Z,2.63
2023-08-22T03:42:46.341Z,2.42
2023-08-22T03:45:14.251Z,2.67
2023-08-22T03:47:42.160Z,2.30
2023-08-22T03:50:10.313Z,2.55
2023-08-22T03:52:38.032Z,2.63
2023-08-22T03:55:06.547Z,3.40
2023-08-22T03:57:34.269Z,2.20
2023-08-22T04:00:02.129Z,2.42
2023-08-22T04:02:30.489Z,3.00
2023-08-22T04:04:59.133Z,2.55
2023-08-22T04:07:27.791Z,2.22
2023-08-22T04:09:55.518Z,2.05
2023-08-22T04:12:23.222Z,2.50
2023-08-22T04:14:51.381Z,2.85
2023-08-22T04:17:19.239Z,3.22
2023-08-22T04:19:47.847Z,2.60
2023-08-22T04:22:15.956Z,2.40
2023-08-22T04:24:43.689Z,2.53
2023-08-22T04:27:11.777Z,3.05
2023-08-22T04:29:40.009Z,3.08
2023-08-22T04:32:07.732Z,2.40
2023-08-22T04:34:35.561Z,2.97
2023-08-22T04:37:05.420Z,2.60
2023-08-22T04:39:33.575Z,2.70
2023-08-22T04:42:11.489Z,3.08
2023-08-22T04:44:55.051Z,2.90
2023-08-22T04:47:23.315Z,2.20
2023-08-22T04:49:51.641Z,2.80
2023-08-22T04:52:19.481Z,3.22
2023-08-22T04:54:47.331Z,2.50
2023-08-22T04:57:15.022Z,2.83
2023-08-22T04:59:42.757Z,2.83
2023-08-22T05:02:10.549Z,2.83
2023-08-22T05:04:38.980Z,2.08
2023-08-22T05:07:07.063Z,2.75
2023-08-22T05:09:35.121Z,2.60
2023-08-22T05:12:03.067Z,2.15
2023-08-22T05:14:33.399Z,2.40
2023-08-22T05:17:01.385Z,2.42
2023-08-22T05:19:29.306Z,2.63
2023-08-22T05:21:57.064Z,1.75
2023-08-22T05:24:25.422Z,2.08
2023-08-22T05:26:53.248Z,2.30
2023-08-22T05:29:21.873Z,2.25
2023-08-22T05:31:49.993Z,2.20
2023-08-22T05:34:18.029Z,2.65
2023-08-22T05:36:45.957Z,2.13
2023-08-22T05:39:14.194Z,2.10
2023-08-22T05:41:41.876Z,2.63
2023-08-22T05:44:09.577Z,3.05
2023-08-22T05:46:38.135Z,2.42
2023-08-22T05:49:06.391Z,2.30
2023-08-22T05:51:34.259Z,2.28
2023-08-22T05:54:01.973Z,2.67
2023-08-22T05:56:30.140Z,2.35
2023-08-22T05:58:57.862Z,2.33
2023-08-22T06:01:25.723Z,1.88
2023-08-22T06:03:53.910Z,2.42
2023-08-22T06:06:21.850Z,2.83
2023-08-22T06:08:51.246Z,2.22
2023-08-22T06:11:19.152Z,2.42
2023-08-22T06:13:46.981Z,2.08
2023-08-22T06:16:15.335Z,2.22
2023-08-22T06:18:43.916Z,1.80
2023-08-22T06:21:11.995Z,2.25
2023-08-22T06:23:39.869Z,1.80
2023-08-22T06:26:14.393Z,2.03
2023-08-22T06:28:47.069Z,1.65
2023-08-22T06:31:15.063Z,1.80
2023-08-22T06:33:42.996Z,2.28
2023-08-22T06:36:11.186Z,2.00
2023-08-22T06:38:39.125Z,2.63
2023-08-22T06:41:08.807Z,2.00
2023-08-22T06:43:36.556Z,1.80
2023-08-22T06:46:04.325Z,2.13
2023-08-22T06:48:41.685Z,1.95
2023-08-22T06:51:10.813Z,2.00
2023-08-22T06:53:38.581Z,2.00
2023-08-22T06:56:06.362Z,2.28
2023-08-22T06:58:34.231Z,2.20
2023-08-22T07:01:05.373Z,1.65
2023-08-22T07:03:33.385Z,2.20
2023-08-22T07:06:01.131Z,2.17
2023-08-22T07:08:29.938Z,2.42
2023-08-22T07:11:05.343Z,1.90
2023-08-22T07:13:37.313Z,2.60
2023-08-22T07:16:05.369Z,2.00
2023-08-22T07:18:33.136Z,2.05
2023-08-22T07:21:08.386Z,2.67
2023-08-22T07:23:36.137Z,2.17
2023-08-22T07:26:03.968Z,2.30
2023-08-22T07:28:31.749Z,2.10
2023-08-22T07:31:01.355Z,2.03
2023-08-22T07:33:29.254Z,1.85
2023-08-22T07:35:56.984Z,2.50
2023-08-22T07:38:26.557Z,1.80
2023-08-22T07:40:54.417Z,2.60
2023-08-22T07:43:22.248Z,1.95
2023-08-22T07:45:49.972Z,1.98
2023-08-22T07:48:18.222Z,1.90
2023-08-22T07:50:45.972Z,2.38
2023-08-22T07:53:13.844Z,2.30
2023-08-22T07:55:41.486Z,2.10
2023-08-22T07:58:09.196Z,1.80
2023-08-22T08:00:36.944Z,2.17
2023-08-22T08:03:05.204Z,2.03
2023-08-22T08:05:34.622Z,2.33
2023-08-22T08:08:02.411Z,1.85
2023-08-22T08:10:30.283Z,1.67
2023-08-22T08:12:58.342Z,2.80
2023-08-22T08:15:26.199Z,2.47
2023-08-22T08:17:54.044Z,2.45
2023-08-22T08:20:22.317Z,2.30
2023-08-22T08:22:50.069Z,2.10
2023-08-22T08:25:17.916Z,2.38
2023-08-22T08:27:47.244Z,1.95
2023-08-22T08:30:17.403Z,2.20
2023-08-22T08:32:45.334Z,2.33
2023-08-22T08:35:13.945Z,2.28
2023-08-22T08:37:41.646Z,2.67
2023-08-22T08:40:10.224Z,2.50
2023-08-22T08:42:38.359Z,2.15
2023-08-22T08:45:07.485Z,2.85
2023-08-22T08:47:35.982Z,2.15
2023-08-22T08:50:06.995Z,2.28
2023-08-22T08:52:35.259Z,2.80
2023-08-22T08:55:08.267Z,2.10
2023-08-22T08:57:36.137Z,1.80
2023-08-22T09:00:04.491Z,1.92
2023-08-22T09:02:32.827Z,2.42
2023-08-22T09:05:00.811Z,1.70
2023-08-22T09:07:29.210Z,1.67
2023-08-22T09:09:58.437Z,1.80
2023-08-22T09:12:34.704Z,2.20
2023-08-22T09:15:07.709Z,2.20
2023-08-22T09:17:35.607Z,2.00
2023-08-22T09:20:11.501Z,1.98
2023-08-22T09:22:39.692Z,2.17
2023-08-22T09:25:09.079Z,2.42
2023-08-22T09:27:38.356Z,2.15
2023-08-22T09:30:07.290Z,3.22
2023-08-22T09:32:35.196Z,2.17
2023-08-22T09:35:03.940Z,1.90
2023-08-22T09:37:38.947Z,1.60
2023-08-22T09:40:10.707Z,2.38
2023-08-22T09:42:41.826Z,2.10
2023-08-22T09:45:10.622Z,2.03
2023-08-22T09:47:48.602Z,3.33
2023-08-22T09:50:18.943Z,3.00
2023-08-22T09:52:48.542Z,2.00
2023-08-22T09:55:17.267Z,1.80
2023-08-22T09:57:45.839Z,2.00
2023-08-22T10:00:14.371Z,2.08
2023-08-22T10:02:43.868Z,1.83
2023-08-22T10:05:14.079Z,1.60
2023-08-22T10:07:41.987Z,2.28
2023-08-22T10:10:10.731Z,1.83
2023-08-22T10:12:40.591Z,2.10
2023-08-22T10:15:09.781Z,1.63
2023-08-22T10:17:41.082Z,1.67
2023-08-22T10:20:13.309Z,1.50
2023-08-22T10:22:41.227Z,1.83
2023-08-22T10:25:09.657Z,1.70
2023-08-22T10:27:43.411Z,1.48
2023-08-22T10:30:14.364Z,2.58
2023-08-22T10:32:43.101Z,3.72
2023-08-22T10:35:10.673Z,2.03
2023-08-22T10:37:48.469Z,6.35
2023-08-22T10:40:31.474Z,2.05
2023-08-22T10:43:12.196Z,2.15
2023-08-22T10:45:49.938Z,1.50
2023-08-22T10:48:20.482Z,1.58
2023-08-22T10:50:52.140Z,1.40
2023-08-22T10:53:25.347Z,1.40
2023-08-22T10:55:54.667Z,1.50
2023-08-22T10:58:40.173Z,1.60
2023-08-22T11:01:16.225Z,1.80
2023-08-22T11:03:45.230Z,1.83
2023-08-22T11:06:19.440Z,2.03
2023-08-22T11:08:47.524Z,1.70
2023-08-22T11:11:18.177Z,1.30
2023-08-22T11:13:46.238Z,1.70
2023-08-22T11:16:19.106Z,1.35
2023-08-22T11:18:50.842Z,1.33
2023-08-22T11:21:18.901Z,1.75
2023-08-22T11:23:46.958Z,1.90
2023-08-22T11:26:21.572Z,2.03
2023-08-22T11:28:52.558Z,2.10
2023-08-22T11:31:23.061Z,1.63
2023-08-22T11:33:52.391Z,2.25
2023-08-22T11:36:27.548Z,1.40
2023-08-22T11:38:58.814Z,1.30
2023-08-22T11:41:26.791Z,1.67
2023-08-22T11:44:02.809Z,1.55
2023-08-22T11:46:45.870Z,2.60
2023-08-22T11:49:50.574Z,1.98
2023-08-22T11:52:20.996Z,1.70
2023-08-22T11:55:10.092Z,1.58
2023-08-22T11:58:02.364Z,2.30
2023-08-22T12:00:57.747Z,1.73
2023-08-22T12:03:26.850Z,2.00
2023-08-22T12:06:24.528Z,1.75
2023-08-22T12:09:30.354Z,1.77
2023-08-22T12:12:31.633Z,1.45
2023-08-22T12:15:10.110Z,1.65
2023-08-22T12:18:03.663Z,1.67
2023-08-22T12:20:35.616Z,2.13
2023-08-22T12:23:13.823Z,2.10
2023-08-22T12:26:15.002Z,1.90
2023-08-22T12:28:55.734Z,1.73
2023-08-22T12:33:57.777Z,1.80
2023-08-22T12:34:27.225Z,1.80
2023-08-22T12:37:05.741Z,2.10
2023-08-22T12:39:46.532Z,2.00
2023-08-22T12:42:16.785Z,1.85
2023-08-22T12:45:18.795Z,1.90
2023-08-22T12:48:36.661Z,1.80
2023-08-22T12:51:06.969Z,2.17
2023-08-22T12:53:37.000Z,2.28
2023-08-22T12:56:07.604Z,2.10
2023-08-22T12:58:35.980Z,1.80
2023-08-22T13:01:04.446Z,2.33
2023-08-22T13:03:34.545Z,1.92
2023-08-22T13:06:06.731Z,1.90
2023-08-22T13:08:57.222Z,2.90
2023-08-22T13:11:32.292Z,1.60
2023-08-22T13:14:27.687Z,1.92
2023-08-22T13:17:25.661Z,1.50
2023-08-22T13:19:57.214Z,1.95
2023-08-22T13:22:27.866Z,1.88
2023-08-22T13:24:55.714Z,2.00
2023-08-22T13:27:23.824Z,1.95
2023-08-22T13:29:51.952Z,2.30
2023-08-22T13:36:42.333Z,1.85
2023-08-22T13:39:12.717Z,1.67
2023-08-22T13:41:40.461Z,1.75
2023-08-22T13:44:08.280Z,2.08
2023-08-22T13:46:36.726Z,2.50
2023-08-22T13:49:04.664Z,1.90
2023-08-22T13:51:34.367Z,1.92
2023-08-22T13:54:03.918Z,2.80
2023-08-22T13:56:32.396Z,7.15
2023-08-22T13:59:00.142Z,3.97
2023-08-22T14:01:28.145Z,2.47
2023-08-22T14:03:55.890Z,2.65
2023-08-22T14:06:23.788Z,2.85
2023-08-22T14:08:58.162Z,2.20
2023-08-22T14:11:27.470Z,2.55
2023-08-22T14:13:57.946Z,2.60
2023-08-22T14:16:25.804Z,2.00
2023-08-22T14:18:53.566Z,1.67
2023-08-22T14:21:23.291Z,1.73
2023-08-22T14:23:53.163Z,1.85
2023-08-22T14:26:20.937Z,2.35
2023-08-22T14:28:48.713Z,2.70
2023-08-22T14:31:16.509Z,2.22
2023-08-22T14:33:44.355Z,1.90
2023-08-22T14:36:12.819Z,2.30
2023-08-22T14:38:40.729Z,1.67
2023-08-22T14:41:08.460Z,2.47
2023-08-22T14:43:36.276Z,2.03
2023-08-22T14:46:05.289Z,1.90
2023-08-22T14:48:34.098Z,2.30
2023-08-22T14:51:02.313Z,2.20
2023-08-22T14:53:30.271Z,2.80
2023-08-22T14:56:03.831Z,2.30
2023-08-22T14:58:46.058Z,2.00
2023-08-22T15:01:15.468Z,1.80
2023-08-22T15:03:43.760Z,2.30
2023-08-22T15:06:13.837Z,1.85
2023-08-22T15:08:42.111Z,2.05
2023-08-22T15:11:09.869Z,2.10
2023-08-22T15:13:37.896Z,2.13
2023-08-22T15:16:05.792Z,2.30
2023-08-22T15:18:33.572Z,1.98
2023-08-22T15:21:01.952Z,2.30
2023-08-22T15:23:30.311Z,2.28
2023-08-22T15:25:59.246Z,2.17
2023-08-22T15:28:27.643Z,2.05
2023-08-22T15:31:00.605Z,2.30
2023-08-22T15:33:31.538Z,2.58
2023-08-22T15:36:01.026Z,2.42
2023-08-22T15:38:33.689Z,4.13
2023-08-22T15:41:07.061Z,2.58
2023-08-22T15:43:34.925Z,2.00
2023-08-22T15:46:02.917Z,2.53
2023-08-22T15:48:30.967Z,2.08
2023-08-22T15:50:59.560Z,2.10
2023-08-22T15:53:27.970Z,2.00
2023-08-22T15:55:55.779Z,2.00
2023-08-22T15:58:23.481Z,1.95
2023-08-22T16:00:51.213Z,2.08
2023-08-22T16:03:19.199Z,2.05
2023-08-22T16:05:46.949Z,2.95
2023-08-22T16:08:14.736Z,1.98
2023-08-22T16:10:42.527Z,2.08
2023-08-22T16:13:11.045Z,2.42
2023-08-22T16:15:40.330Z,2.33
2023-08-22T16:18:08.227Z,2.58
2023-08-22T16:20:36.709Z,2.20
2023-08-22T16:23:04.709Z,2.20
2023-08-22T16:25:32.540Z,2.20
2023-08-22T16:28:00.336Z,2.17
2023-08-22T16:30:28.378Z,1.90
2023-08-22T16:32:56.181Z,2.13
2023-08-22T16:35:24.072Z,2.08
2023-08-22T16:37:51.868Z,2.05
2023-08-22T16:40:19.591Z,2.20
2023-08-22T16:42:47.351Z,2.00
2023-08-22T16:45:15.144Z,2.58
2023-08-22T16:47:43.447Z,2.47
2023-08-22T16:50:11.619Z,2.10
2023-08-22T16:52:39.400Z,2.10
2023-08-22T16:55:08.070Z,2.20
2023-08-22T16:57:35.897Z,2.30
2023-08-22T17:00:08.028Z,1.80
2023-08-22T17:02:35.877Z,1.85
2023-08-22T17:05:04.253Z,2.10
2023-08-22T17:07:32.014Z,2.13
2023-08-22T17:09:59.668Z,1.90
2023-08-22T17:12:27.981Z,2.28
2023-08-22T17:14:55.751Z,2.00
2023-08-22T17:17:23.563Z,2.22
2023-08-22T17:19:51.269Z,2.88
2023-08-22T17:22:19.048Z,2.88
2023-08-22T17:24:46.886Z,2.97
2023-08-22T17:27:14.830Z,2.95
2023-08-22T17:29:42.586Z,2.80
2023-08-22T17:32:10.323Z,2.30
2023-08-22T17:34:38.051Z,1.90
2023-08-22T17:37:06.162Z,2.38
2023-08-22T17:39:33.849Z,2.67
2023-08-22T17:42:01.696Z,2.22
2023-08-22T17:44:29.500Z,2.22
2023-08-22T17:46:57.299Z,2.25
2023-08-22T17:49:25.100Z,2.50
2023-08-22T17:51:53.001Z,2.50
2023-08-22T17:54:20.705Z,2.30
2023-08-22T17:56:51.407Z,2.50
2023-08-22T17:59:19.195Z,2.20
2023-08-22T18:01:48.615Z,1.85
2023-08-22T18:04:17.488Z,2.30
2023-08-22T18:06:45.670Z,2.17
2023-08-22T18:09:14.799Z,3.05
2023-08-22T18:11:43.302Z,3.35
2023-08-22T18:14:11.472Z,3.05
2023-08-22T18:16:39.229Z,2.90
2023-08-22T18:19:07.608Z,3.28
2023-08-22T18:21:35.355Z,3.40
2023-08-22T18:24:03.193Z,3.00
2023-08-22T18:26:32.650Z,3.50
2023-08-22T18:29:00.976Z,2.80
2023-08-22T18:31:29.102Z,3.00
2023-08-22T18:33:57.347Z,3.28
2023-08-22T18:36:32.469Z,3.67
2023-08-22T18:39:00.192Z,3.53
2023-08-22T18:41:27.963Z,3.20
2023-08-22T18:43:55.703Z,3.33
2023-08-22T18:46:25.950Z,3.38
2023-08-22T18:48:54.291Z,3.40
2023-08-22T18:51:22.062Z,3.67
2023-08-22T18:53:49.794Z,6.50
2023-08-22T18:56:18.949Z,7.30
2023-08-22T18:58:47.690Z,7.85
2023-08-22T19:01:16.923Z,4.80
2023-08-22T19:03:44.922Z,4.20
2023-08-22T19:06:12.704Z,4.40
2023-08-22T19:08:40.508Z,3.78
2023-08-22T19:11:08.224Z,3.67
2023-08-22T19:13:36.045Z,3.88
2023-08-22T19:16:07.193Z,7.88
2023-08-22T19:18:35.096Z,7.32
2023-08-22T19:21:02.964Z,12.35
2023-08-22T19:23:30.896Z,4.43
2023-08-22T19:26:02.952Z,4.50
2023-08-22T19:28:31.438Z,4.60
2023-08-22T19:30:59.652Z,3.88
2023-08-22T19:33:30.045Z,3.75
2023-08-22T19:35:58.091Z,3.60
2023-08-22T19:38:26.042Z,3.45
2023-08-22T19:40:56.119Z,4.43
2023-08-22T19:43:23.883Z,5.80
2023-08-22T19:45:53.592Z,5.45
2023-08-22T19:48:23.462Z,4.82
2023-08-22T19:50:52.022Z,4.78
2023-08-22T19:53:19.985Z,4.28
2023-08-22T19:55:48.638Z,5.65
2023-08-22T19:58:16.875Z,6.05
2023-08-22T20:00:47.225Z,6.05
2023-08-22T20:03:15.177Z,6.90
2023-08-22T20:05:44.791Z,6.85
2023-08-22T20:08:12.641Z,5.72
2023-08-22T20:10:40.858Z,6.55
2023-08-22T20:13:08.561Z,6.43
2023-08-22T20:15:36.197Z,7.35
2023-08-22T20:18:04.058Z,7.00
2023-08-22T20:20:31.940Z,7.13
2023-08-22T20:22:59.948Z,7.38
2023-08-22T20:25:27.767Z,7.85
2023-08-22T20:27:55.558Z,8.50
2023-08-22T20:30:23.306Z,8.52
2023-08-22T20:32:51.255Z,8.77
2023-08-22T20:35:20.157Z,9.48
2023-08-22T20:37:51.283Z,9.57
2023-08-22T20:40:19.079Z,9.45
2023-08-22T20:42:49.623Z,9.73
2023-08-22T20:45:17.653Z,9.25
2023-08-22T20:47:45.754Z,8.52
2023-08-22T20:50:13.778Z,8.80
2023-08-22T20:52:41.493Z,7.68
2023-08-22T20:55:09.637Z,8.20
2023-08-22T20:57:37.508Z,8.13
2023-08-22T21:00:09.712Z,7.38
2023-08-22T21:02:39.237Z,8.63
2023-08-22T21:05:07.570Z,8.40
2023-08-22T21:07:35.508Z,9.43
2023-08-22T21:10:03.993Z,8.82
2023-08-22T21:12:35.883Z,8.38
2023-08-22T21:15:07.400Z,7.65
2023-08-22T21:17:35.324Z,8.70
2023-08-22T21:20:05.369Z,8.05
2023-08-22T21:22:33.245Z,7.03
2023-08-22T21:25:00.933Z,6.90
2023-08-22T21:27:28.627Z,7.47
2023-08-22T21:29:56.330Z,7.45
2023-08-22T21:32:24.185Z,7.40
2023-08-22T21:34:53.435Z,7.28
2023-08-22T21:37:22.781Z,8.07
2023-08-22T21:39:50.621Z,7.78
2023-08-22T21:42:18.560Z,8.38
2023-08-22T21:44:46.286Z,7.68
2023-08-22T21:47:14.006Z,6.70
2023-08-22T21:49:41.695Z,6.88
2023-08-22T21:52:09.425Z,7.03
2023-08-22T21:54:37.326Z,6.15
2023-08-22T21:57:05.105Z,6.35
2023-08-22T21:59:32.816Z,6.03
2023-08-22T22:02:00.711Z,5.85
2023-08-22T22:04:28.517Z,5.95
2023-08-22T22:06:56.407Z,6.35
2023-08-22T22:09:24.173Z,6.72
2023-08-22T22:11:51.897Z,6.13
2023-08-22T22:14:19.607Z,6.25
2023-08-22T22:16:47.495Z,6.22
2023-08-22T22:19:15.461Z,6.53
2023-08-22T22:21:43.685Z,6.32
2023-08-22T22:24:11.488Z,5.90
2023-08-22T22:26:39.373Z,5.82
2023-08-22T22:29:07.085Z,6.20
2023-08-22T22:31:34.920Z,6.35
2023-08-22T22:34:02.728Z,6.25
2023-08-22T22:36:30.746Z,6.30
2023-08-22T22:38:58.682Z,6.78
2023-08-22T22:41:26.478Z,6.40
2023-08-22T22:43:54.249Z,6.45
2023-08-22T22:46:22.250Z,6.25
2023-08-22T22:48:49.975Z,6.22
2023-08-22T22:51:17.712Z,5.65
2023-08-22T22:53:45.559Z,5.72
2023-08-22T22:56:13.257Z,5.85
2023-08-22T22:58:40.928Z,5.65
2023-08-22T23:01:09.614Z,5.00
2023-08-22T23:03:37.682Z,5.68
2023-08-22T23:06:10.353Z,5.47
2023-08-22T23:08:38.161Z,5.90
2023-08-22T23:11:10.779Z,5.53
2023-08-22T23:13:53.566Z,5.60
2023-08-22T23:16:21.297Z,5.78
2023-08-22T23:18:49.020Z,5.53
2023-08-22T23:21:16.735Z,6.18
2023-08-22T23:23:44.477Z,5.90
2023-08-22T23:26:12.197Z,6.20
2023-08-22T23:28:40.072Z,6.43
2023-08-22T23:31:07.787Z,6.57
2023-08-22T23:33:35.545Z,6.88
2023-08-22T23:36:03.414Z,6.72
2023-08-22T23:38:31.296Z,7.53
2023-08-22T23:40:58.964Z,7.18
2023-08-22T23:43:26.759Z,6.88
2023-08-22T23:45:54.406Z,7.40
2023-08-22T23:48:22.110Z,6.90
2023-08-22T23:50:51.260Z,7.40
2023-08-22T23:53:21.630Z,6.05
2023-08-22T23:55:49.332Z,7.32
2023-08-22T23:58:17.081Z,6.78
